Amba, Kentucky
Current Conditions -  °F | °C
As of 12:35 PM on Tuesday 21 Oct 2014 (Local Time) from KPBX Reporting Station
Overcast Overcast  
Wind Chill: 12°   Ceiling: 3600
Heat Index: 12°   Visibility: 10mi
Dew Point:   Wind: 8mph
Humidity: 74%   Direction: 280°W
Pressure: 29.99"   Gusts: 22mph
Location:  37.4843°N, 82.6492°W
Report Text: KPBX 211635Z AUTO 28007G19KT 10SM SCT020 BKN036 OVC044 12/08 A2999 RMK AO2 T01210075
Loading
Personal Weather Stations






























Interactive Weather Map
Tropical Storm Tracking
New forecast layout! Learn more

10-Day Weather Forecast

Advertisements
Track Severe Weather on mobile